Time;durP1;ratioP1;P1;durP2;ratioP2;P2;SDS_P1;SDS_P2;PMS_P1;PMS_P2;Temp;Humidity;BMP_temperature;BMP_pressure;BME280_temperature;BME280_humidity;BME280_pressure;Samples;Min_cycle;Max_cycle;Signal;HPM_P1;HPM_P2
2021/11/09 00:02:24;;;;;;;;;;;6.00;58.40;;;;;;6276807;22;19899;-67
2021/11/09 00:04:53;;;;;;;;;;;6.00;58.40;;;;;;6276611;22;19903;-67
2021/11/09 00:10:18;;;;;;;;;;;6.00;58.50;;;;;;6277382;22;19899;-68
2021/11/09 00:12:42;;;;;;;;;;;6.00;58.50;;;;;;6273806;22;19900;-68
2021/11/09 00:15:09;;;;;;;;;;;6.00;58.50;;;;;;6276571;22;19969;-67
2021/11/09 00:17:36;;;;;;;;;;;6.00;58.60;;;;;;6276573;22;19899;-68
2021/11/09 00:20:03;;;;;;;;;;;5.90;58.50;;;;;;6276715;22;19899;-68
2021/11/09 00:22:28;;;;;;;;;;;6.00;58.60;;;;;;6276684;22;19907;-67
2021/11/09 00:24:54;;;;;;;;;;;5.90;58.50;;;;;;6276457;22;19903;-67
2021/11/09 00:27:20;;;;;;;;;;;5.90;58.60;;;;;;6276631;22;19945;-67
2021/11/09 00:29:46;;;;;;;;;;;5.90;58.60;;;;;;6276576;22;20238;-68
2021/11/09 00:32:12;;;;;;;;;;;5.90;58.60;;;;;;6276561;22;19899;-67
2021/11/09 00:34:38;;;;;;;;;;;5.90;58.60;;;;;;6276568;22;19907;-67
2021/11/09 00:37:04;;;;;;;;;;;5.80;58.60;;;;;;6276512;22;19937;-67
2021/11/09 00:39:30;;;;;;;;;;;5.80;58.60;;;;;;6276611;22;19899;-67
2021/11/09 00:41:55;;;;;;;;;;;5.80;58.60;;;;;;6276490;22;20043;-67
2021/11/09 00:44:23;;;;;;;;;;;5.80;58.70;;;;;;6274738;22;19903;-68
2021/11/09 00:46:49;;;;;;;;;;;5.80;58.80;;;;;;6276537;22;19905;-67
2021/11/09 00:49:15;;;;;;;;;;;5.80;58.80;;;;;;6276505;22;19907;-68
2021/11/09 00:51:41;;;;;;;;;;;5.80;58.90;;;;;;6276466;22;19899;-68
2021/11/09 00:54:06;;;;;;;;;;;5.70;58.80;;;;;;6276469;22;19907;-67
2021/11/09 00:56:33;;;;;;;;;;;5.70;58.80;;;;;;6276488;22;19970;-67
2021/11/09 00:58:59;;;;;;;;;;;5.70;58.80;;;;;;6276412;22;19950;-67
2021/11/09 01:01:24;;;;;;;;;;;5.70;58.80;;;;;;6276445;22;20311;-67
2021/11/09 01:03:50;;;;;;;;;;;5.70;58.90;;;;;;6276338;22;19903;-67
2021/11/09 01:06:16;;;;;;;;;;;5.70;58.90;;;;;;6276364;22;19946;-67
2021/11/09 01:08:41;;;;;;;;;;;5.60;58.90;;;;;;6274503;22;19929;-67
2021/11/09 01:11:07;;;;;;;;;;;5.60;58.90;;;;;;6275043;22;19907;-67
2021/11/09 01:13:33;;;;;;;;;;;5.60;59.00;;;;;;6275527;22;19907;-67
2021/11/09 01:15:59;;;;;;;;;;;5.60;59.00;;;;;;6276330;22;19899;-67
2021/11/09 01:18:34;;;;;;;;;;;5.60;59.20;;;;;;6276490;22;19895;-67
2021/11/09 01:21:00;;;;;;;;;;;5.60;59.30;;;;;;6276476;22;19918;-67
2021/11/09 01:23:26;;;;;;;;;;;5.60;59.40;;;;;;6276293;22;19895;-67
2021/11/09 01:25:52;;;;;;;;;;;5.60;59.50;;;;;;6276364;22;19899;-67
2021/11/09 01:28:18;;;;;;;;;;;5.60;59.40;;;;;;6276468;22;19899;-67
2021/11/09 01:30:45;;;;;;;;;;;5.60;59.40;;;;;;6276359;22;19978;-67
2021/11/09 01:33:10;;;;;;;;;;;5.60;59.40;;;;;;6276352;22;19899;-67
2021/11/09 01:35:36;;;;;;;;;;;5.60;59.70;;;;;;6276387;22;19978;-67
2021/11/09 01:38:02;;;;;;;;;;;5.60;59.80;;;;;;6276393;22;20307;-67
2021/11/09 01:40:28;;;;;;;;;;;5.60;59.70;;;;;;6276344;22;20311;-67
2021/11/09 01:42:55;;;;;;;;;;;5.60;59.60;;;;;;6276318;22;19899;-67
2021/11/09 01:45:21;;;;;;;;;;;5.60;59.60;;;;;;6276262;22;20242;-68
2021/11/09 01:47:47;;;;;;;;;;;5.60;59.50;;;;;;6276334;22;19907;-68
2021/11/09 01:50:15;;;;;;;;;;;5.60;59.50;;;;;;6278194;22;19900;-68
2021/11/09 01:52:40;;;;;;;;;;;5.60;59.60;;;;;;6278271;22;19899;-68
2021/11/09 01:55:07;;;;;;;;;;;5.50;59.50;;;;;;6276715;22;19927;-68
2021/11/09 01:57:33;;;;;;;;;;;5.50;59.40;;;;;;6276690;22;20254;-68
2021/11/09 02:00:03;;;;;;;;;;;5.50;59.40;;;;;;6276615;22;19905;-68
2021/11/09 02:02:28;;;;;;;;;;;5.50;59.40;;;;;;6276068;22;19922;-68
2021/11/09 02:04:54;;;;;;;;;;;5.50;59.50;;;;;;6276611;22;20310;-67
2021/11/09 02:07:20;;;;;;;;;;;5.40;59.40;;;;;;6275011;22;19954;-67
2021/11/09 02:09:46;;;;;;;;;;;5.40;59.40;;;;;;6275307;22;19926;-68
2021/11/09 02:12:11;;;;;;;;;;;5.40;59.40;;;;;;6274627;22;19906;-68
2021/11/09 02:14:37;;;;;;;;;;;5.40;59.40;;;;;;6274946;22;19911;-67
2021/11/09 02:17:03;;;;;;;;;;;5.40;59.40;;;;;;6276072;22;19906;-67
2021/11/09 02:19:29;;;;;;;;;;;5.40;59.40;;;;;;6276544;22;20234;-68
2021/11/09 02:21:54;;;;;;;;;;;5.40;59.50;;;;;;6274939;22;19899;-68
2021/11/09 02:24:20;;;;;;;;;;;5.40;59.50;;;;;;6276297;22;20541;-67
2021/11/09 02:26:46;;;;;;;;;;;5.30;59.50;;;;;;6276480;22;19906;-67
2021/11/09 02:29:12;;;;;;;;;;;5.30;59.50;;;;;;6276540;22;19906;-68
2021/11/09 02:31:37;;;;;;;;;;;5.30;59.60;;;;;;6276603;22;19906;-68
2021/11/09 02:34:03;;;;;;;;;;;5.30;59.80;;;;;;6276599;22;20307;-68
2021/11/09 02:36:28;;;;;;;;;;;5.30;59.80;;;;;;6276495;22;19953;-68
2021/11/09 02:38:54;;;;;;;;;;;5.30;59.90;;;;;;6276422;22;19922;-67
2021/11/09 02:41:20;;;;;;;;;;;5.30;59.90;;;;;;6276378;22;20235;-68
2021/11/09 02:43:46;;;;;;;;;;;5.30;59.90;;;;;;6276328;22;19907;-68
2021/11/09 02:48:54;;;;;;;;;;;5.30;59.90;;;;;;6276800;22;19907;-68
2021/11/09 02:51:26;;;;;;;;;;;5.40;60.00;;;;;;6276405;22;19899;-68
2021/11/09 02:54:01;;;;;;;;;;;5.30;60.00;;;;;;6276342;22;19899;-69
2021/11/09 02:56:37;;;;;;;;;;;5.30;60.00;;;;;;6276357;22;19910;-68
2021/11/09 02:59:42;;;;;;;;;;;5.30;60.00;;;;;;6276313;22;20281;-68
2021/11/09 03:02:19;;;;;;;;;;;5.30;60.00;;;;;;6273339;22;19899;-68
2021/11/09 03:12:21;;;;;;;;;;;5.20;60.10;;;;;;6276362;22;20307;-68
2021/11/09 03:14:47;;;;;;;;;;;5.20;60.10;;;;;;6275981;22;19911;-68
2021/11/09 03:17:19;;;;;;;;;;;5.20;60.10;;;;;;6276098;22;19903;-68
2021/11/09 03:19:51;;;;;;;;;;;5.20;60.00;;;;;;6276090;22;19930;-68
2021/11/09 03:44:35;;;;;;;;;;;5.00;60.10;;;;;;6219466;22;20006;-68
2021/11/09 03:47:06;;;;;;;;;;;5.10;60.20;;;;;;6274214;22;19899;-68
2021/11/09 03:49:33;;;;;;;;;;;5.00;60.20;;;;;;6274123;22;19902;-68
2021/11/09 03:52:01;;;;;;;;;;;5.00;60.40;;;;;;6275844;22;19902;-67
2021/11/09 03:54:28;;;;;;;;;;;5.00;60.50;;;;;;6275736;22;19895;-68
2021/11/09 04:00:07;;;;;;;;;;;5.00;60.40;;;;;;6275797;22;19938;-67
2021/11/09 04:02:29;;;;;;;;;;;5.00;60.30;;;;;;6272675;22;19899;-68
2021/11/09 04:04:58;;;;;;;;;;;5.00;60.30;;;;;;6275574;22;20311;-68
2021/11/09 04:10:09;;;;;;;;;;;5.00;60.40;;;;;;6276316;22;19945;-67
2021/11/09 04:16:04;;;;;;;;;;;5.00;60.50;;;;;;6243146;22;19918;-67
2021/11/09 04:20:58;;;;;;;;;;;5.00;60.50;;;;;;6276171;22;19903;-68
2021/11/09 04:29:17;;;;;;;;;;;4.90;60.60;;;;;;6250939;22;20238;-68
2021/11/09 04:32:12;;;;;;;;;;;4.90;60.60;;;;;;6275500;22;19903;-68
2021/11/09 04:43:47;;;;;;;;;;;4.90;60.80;;;;;;6275846;22;19970;-68
2021/11/09 04:53:31;;;;;;;;;;;4.90;60.70;;;;;;6212294;23;20228;-68
2021/11/09 05:01:51;;;;;;;;;;;4.90;60.80;;;;;;6211940;23;20248;-67
2021/11/09 05:09:41;;;;;;;;;;;4.90;61.00;;;;;;6211294;23;19906;-68
2021/11/09 05:12:07;;;;;;;;;;;4.90;61.00;;;;;;6211272;23;19964;-68
2021/11/09 05:14:33;;;;;;;;;;;4.90;61.00;;;;;;6211057;23;19918;-68
2021/11/09 05:17:00;;;;;;;;;;;4.90;61.10;;;;;;6211242;23;20354;-68
2021/11/09 05:19:26;;;;;;;;;;;4.90;61.10;;;;;;6211087;23;19900;-67
2021/11/09 05:21:52;;;;;;;;;;;4.90;61.10;;;;;;6240621;22;19899;-68
2021/11/09 05:24:17;;;;;;;;;;;4.90;61.10;;;;;;6275848;22;19903;-68
2021/11/09 05:26:44;;;;;;;;;;;4.90;61.10;;;;;;6276928;22;19903;-68
2021/11/09 05:29:11;;;;;;;;;;;5.00;61.10;;;;;;6276945;22;20072;-67
2021/11/09 05:31:37;;;;;;;;;;;5.00;61.20;;;;;;6275007;22;20378;-67
2021/11/09 05:34:03;;;;;;;;;;;5.00;61.20;;;;;;6276985;22;20373;-68
2021/11/09 05:36:35;;;;;;;;;;;5.00;61.20;;;;;;6277314;22;19931;-68
2021/11/09 05:39:20;;;;;;;;;;;5.00;61.30;;;;;;6277047;22;19906;-67
2021/11/09 05:41:48;;;;;;;;;;;5.00;61.30;;;;;;6276990;22;19910;-68
2021/11/09 05:44:14;;;;;;;;;;;5.00;61.30;;;;;;6276865;22;19914;-68
2021/11/09 05:46:40;;;;;;;;;;;5.00;61.20;;;;;;6276791;22;19899;-67
2021/11/09 05:49:06;;;;;;;;;;;5.00;61.30;;;;;;6277000;22;19909;-68
2021/11/09 05:51:32;;;;;;;;;;;5.10;61.30;;;;;;6275026;22;20330;-68
2021/11/09 05:54:00;;;;;;;;;;;5.10;61.30;;;;;;6276747;22;19949;-69
2021/11/09 05:56:26;;;;;;;;;;;5.10;61.30;;;;;;6276651;22;20327;-68
2021/11/09 05:58:52;;;;;;;;;;;5.20;61.40;;;;;;6276545;22;19907;-68
2021/11/09 06:01:18;;;;;;;;;;;5.20;61.40;;;;;;6276514;22;19899;-68
2021/11/09 06:03:43;;;;;;;;;;;5.20;61.40;;;;;;6276591;22;19944;-68
2021/11/09 06:06:09;;;;;;;;;;;5.20;61.40;;;;;;6276395;22;19899;-69
2021/11/09 06:08:35;;;;;;;;;;;5.30;61.40;;;;;;6276556;22;20234;-68
2021/11/09 06:11:01;;;;;;;;;;;5.30;61.40;;;;;;6276624;22;19921;-68
2021/11/09 06:13:27;;;;;;;;;;;5.30;61.50;;;;;;6276384;22;19911;-67
2021/11/09 06:15:53;;;;;;;;;;;5.40;61.60;;;;;;6276260;22;19968;-68
2021/11/09 06:18:19;;;;;;;;;;;5.40;61.60;;;;;;6276467;22;19899;-68
2021/11/09 06:20:44;;;;;;;;;;;5.40;61.70;;;;;;6274717;22;19977;-68
2021/11/09 06:23:10;;;;;;;;;;;5.50;61.90;;;;;;6276210;22;20226;-68
2021/11/09 06:25:35;;;;;;;;;;;5.50;61.90;;;;;;6276319;22;19904;-67
2021/11/09 06:28:04;;;;;;;;;;;5.60;62.10;;;;;;6276053;22;19899;-68
2021/11/09 06:30:30;;;;;;;;;;;5.70;62.10;;;;;;6276137;22;19906;-68
2021/11/09 06:32:56;;;;;;;;;;;5.70;62.10;;;;;;6276456;22;19984;-68
2021/11/09 06:35:22;;;;;;;;;;;5.80;62.20;;;;;;6275740;22;20269;-69
2021/11/09 06:37:47;;;;;;;;;;;5.80;62.10;;;;;;6275952;22;19906;-68
2021/11/09 06:40:13;;;;;;;;;;;5.80;62.10;;;;;;6275928;22;19902;-68
2021/11/09 06:42:39;;;;;;;;;;;5.90;62.20;;;;;;6274217;22;19900;-69
2021/11/09 06:45:05;;;;;;;;;;;5.90;62.20;;;;;;6276042;22;19941;-68
2021/11/09 06:47:32;;;;;;;;;;;6.00;62.30;;;;;;6275693;22;19910;-68
2021/11/09 06:49:58;;;;;;;;;;;6.00;62.30;;;;;;6276299;22;20227;-69
2021/11/09 06:52:24;;;;;;;;;;;6.10;62.30;;;;;;6275940;22;19906;-68
2021/11/09 06:54:50;;;;;;;;;;;6.10;62.30;;;;;;6274162;22;19904;-67
2021/11/09 06:57:16;;;;;;;;;;;6.20;62.40;;;;;;6275959;22;19945;-66
2021/11/09 06:59:41;;;;;;;;;;;6.20;62.40;;;;;;6275828;22;20298;-67
2021/11/09 07:02:07;;;;;;;;;;;6.30;62.40;;;;;;6275965;22;19900;-67
2021/11/09 07:04:33;;;;;;;;;;;6.30;62.40;;;;;;6275799;22;20227;-67
2021/11/09 07:07:00;;;;;;;;;;;6.40;62.40;;;;;;6275679;22;19899;-67
2021/11/09 07:09:26;;;;;;;;;;;6.50;62.50;;;;;;6275758;22;19930;-68
2021/11/09 07:11:52;;;;;;;;;;;6.50;62.50;;;;;;6275997;22;19900;-67
2021/11/09 07:14:18;;;;;;;;;;;6.60;62.50;;;;;;6275821;22;19917;-68
2021/11/09 07:16:45;;;;;;;;;;;6.60;62.40;;;;;;6275890;22;19935;-68
2021/11/09 07:19:16;;;;;;;;;;;6.70;62.50;;;;;;6275804;22;19899;-67
2021/11/09 07:21:41;;;;;;;;;;;6.80;62.60;;;;;;6274017;22;19899;-67
2021/11/09 07:24:07;;;;;;;;;;;6.80;62.50;;;;;;6275543;22;20227;-68
2021/11/09 07:26:33;;;;;;;;;;;6.90;62.40;;;;;;6273983;22;19906;-68
2021/11/09 07:28:59;;;;;;;;;;;7.00;62.40;;;;;;6273595;22;19922;-67
2021/11/09 07:31:25;;;;;;;;;;;7.00;62.30;;;;;;6275276;22;20180;-67
2021/11/09 07:33:51;;;;;;;;;;;7.10;62.20;;;;;;6275475;22;19899;-68
2021/11/09 07:36:17;;;;;;;;;;;7.10;62.10;;;;;;6273959;22;19911;-67
2021/11/09 07:38:43;;;;;;;;;;;7.20;62.10;;;;;;6275377;22;19956;-67
2021/11/09 07:41:09;;;;;;;;;;;7.20;62.90;;;;;;6275368;22;20311;-67
2021/11/09 07:43:34;;;;;;;;;;;7.20;62.10;;;;;;6275485;22;19982;-67
2021/11/09 07:46:00;;;;;;;;;;;7.30;62.10;;;;;;6275049;22;19929;-67
2021/11/09 07:48:26;;;;;;;;;;;7.30;62.10;;;;;;6274992;22;19899;-67
2021/11/09 07:50:52;;;;;;;;;;;7.40;62.20;;;;;;6275590;22;19944;-67
2021/11/09 07:53:18;;;;;;;;;;;7.40;62.10;;;;;;6275218;22;19899;-67
2021/11/09 07:55:49;;;;;;;;;;;7.50;62.00;;;;;;6275444;22;19899;-68
2021/11/09 07:58:19;;;;;;;;;;;7.60;61.80;;;;;;6275529;22;19942;-67
2021/11/09 08:00:51;;;;;;;;;;;7.60;61.70;;;;;;6275558;22;20337;-68
2021/11/09 08:03:34;;;;;;;;;;;7.60;61.50;;;;;;6275428;22;20360;-67
2021/11/09 08:06:10;;;;;;;;;;;7.60;61.40;;;;;;6274077;22;20300;-68
2021/11/09 08:08:40;;;;;;;;;;;7.60;61.30;;;;;;6275592;22;19957;-68
2021/11/09 08:11:07;;;;;;;;;;;7.60;61.20;;;;;;6275716;22;19903;-68
2021/11/09 08:13:33;;;;;;;;;;;7.50;61.10;;;;;;6275171;22;19915;-67
2021/11/09 08:15:58;;;;;;;;;;;7.50;61.20;;;;;;6275413;22;19930;-67
2021/11/09 08:18:24;;;;;;;;;;;7.50;61.20;;;;;;6275090;22;19901;-67
2021/11/09 08:20:50;;;;;;;;;;;7.50;61.30;;;;;;6273738;22;19903;-69
2021/11/09 08:23:16;;;;;;;;;;;7.50;61.40;;;;;;6273732;22;19899;-69
2021/11/09 08:25:42;;;;;;;;;;;7.60;61.50;;;;;;6273720;22;19904;-69
2021/11/09 08:28:08;;;;;;;;;;;7.60;61.60;;;;;;6273864;22;19978;-69
2021/11/09 08:30:34;;;;;;;;;;;7.60;61.70;;;;;;6275421;22;19937;-69
2021/11/09 08:33:00;;;;;;;;;;;7.60;61.90;;;;;;6275440;22;19899;-69
2021/11/09 08:35:26;;;;;;;;;;;7.70;62.20;;;;;;6273835;22;19903;-69
2021/11/09 08:37:53;;;;;;;;;;;7.80;62.60;;;;;;6273597;22;20386;-69
2021/11/09 08:40:21;;;;;;;;;;;8.00;63.00;;;;;;6275241;22;19903;-68
2021/11/09 08:42:50;;;;;;;;;;;8.10;63.10;;;;;;6273395;22;20239;-68
2021/11/09 08:47:54;;;;;;;;;;;8.50;63.00;;;;;;6276336;22;19899;-68
2021/11/09 08:50:22;;;;;;;;;;;8.70;62.80;;;;;;6275271;22;19902;-68
2021/11/09 08:52:48;;;;;;;;;;;8.80;62.40;;;;;;6275195;22;19922;-68
2021/11/09 08:55:32;;;;;;;;;;;8.90;61.80;;;;;;6274994;22;20259;-69
2021/11/09 09:06:09;;;;;;;;;;;9.10;60.30;;;;;;6275451;22;19953;-69
2021/11/09 09:08:35;;;;;;;;;;;9.10;60.10;;;;;;6274963;22;19899;-68
2021/11/09 09:11:01;;;;;;;;;;;9.00;59.90;;;;;;6275110;22;19899;-68
2021/11/09 09:13:27;;;;;;;;;;;9.00;59.70;;;;;;6274825;22;19930;-69
2021/11/09 09:15:53;;;;;;;;;;;9.00;59.70;;;;;;6273555;22;19899;-68
2021/11/09 09:18:19;;;;;;;;;;;9.00;59.60;;;;;;6275225;22;19895;-68
2021/11/09 09:20:54;;;;;;;;;;;8.90;59.50;;;;;;6274985;22;19934;-68
2021/11/09 09:23:26;;;;;;;;;;;8.90;59.60;;;;;;6275092;22;19974;-68
2021/11/09 09:55:55;;;;;;;;;;;9.40;59.60;;;;;;6211989;23;20073;-68
2021/11/09 09:58:21;;;;;;;;;;;9.50;59.60;;;;;;6211225;23;19978;-68
2021/11/09 10:00:46;;;;;;;;;;;9.60;59.70;;;;;;6211025;23;20347;-68
2021/11/09 10:03:12;;;;;;;;;;;9.60;59.50;;;;;;6268442;22;19907;-68
2021/11/09 10:05:39;;;;;;;;;;;9.70;59.50;;;;;;6274683;22;19984;-68
2021/11/09 10:08:10;;;;;;;;;;;9.80;59.50;;;;;;6274748;22;19903;-68
2021/11/09 10:10:36;;;;;;;;;;;9.80;59.50;;;;;;6276085;22;19906;-68
2021/11/09 10:13:09;;;;;;;;;;;9.90;59.50;;;;;;6276562;22;19899;-68
2021/11/09 10:15:36;;;;;;;;;;;10.00;59.50;;;;;;6275371;22;19907;-68
2021/11/09 10:18:04;;;;;;;;;;;10.10;59.50;;;;;;6277512;22;19906;-68
2021/11/09 10:20:31;;;;;;;;;;;10.20;59.40;;;;;;6276792;22;19899;-68
2021/11/09 10:23:01;;;;;;;;;;;10.20;59.20;;;;;;6277763;22;19911;-69
2021/11/09 10:25:28;;;;;;;;;;;10.30;59.00;;;;;;6275987;22;19907;-68
2021/11/09 10:27:58;;;;;;;;;;;10.30;58.90;;;;;;6277595;22;20326;-68
2021/11/09 10:30:25;;;;;;;;;;;10.40;58.90;;;;;;6278083;22;19899;-68
2021/11/09 10:32:51;;;;;;;;;;;10.50;58.80;;;;;;6277530;22;19899;-69
2021/11/09 10:35:18;;;;;;;;;;;10.50;58.70;;;;;;6277591;22;20003;-69
2021/11/09 10:37:48;;;;;;;;;;;10.60;58.80;;;;;;6276948;22;19978;-69
2021/11/09 10:40:17;;;;;;;;;;;10.70;58.80;;;;;;6277331;22;19906;-69
2021/11/09 10:42:45;;;;;;;;;;;10.80;58.80;;;;;;6277222;22;20342;-69
2021/11/09 10:45:12;;;;;;;;;;;10.90;58.80;;;;;;6277087;22;19904;-69
2021/11/09 10:47:38;;;;;;;;;;;11.00;58.80;;;;;;6277117;22;19899;-69
2021/11/09 10:50:10;;;;;;;;;;;11.10;58.80;;;;;;6277466;22;20372;-69
2021/11/09 10:52:38;;;;;;;;;;;11.10;58.60;;;;;;6277139;22;19982;-69
2021/11/09 10:55:27;;;;;;;;;;;11.30;58.70;;;;;;6277229;22;20362;-69
2021/11/09 11:06:21;;;;;;;;;;;11.70;58.20;;;;;;6277190;22;19909;-70
2021/11/09 11:09:02;;;;;;;;;;;11.80;57.90;;;;;;6277052;22;19931;-69
2021/11/09 11:11:28;;;;;;;;;;;11.90;58.00;;;;;;6276457;22;20271;-69
2021/11/09 11:13:54;;;;;;;;;;;12.00;57.80;;;;;;6276606;22;19947;-68
2021/11/09 11:16:21;;;;;;;;;;;12.10;57.70;;;;;;6277105;22;19899;-68
2021/11/09 11:18:55;;;;;;;;;;;12.20;57.40;;;;;;6275771;22;20365;-68
2021/11/09 11:21:22;;;;;;;;;;;12.30;57.20;;;;;;6275801;22;20338;-68
2021/11/09 11:23:48;;;;;;;;;;;12.40;56.80;;;;;;6274946;22;19899;-68
2021/11/09 11:26:14;;;;;;;;;;;12.50;56.40;;;;;;6275543;22;20281;-68
2021/11/09 11:28:42;;;;;;;;;;;12.60;56.30;;;;;;6276741;22;19925;-68
2021/11/09 11:31:09;;;;;;;;;;;12.70;56.20;;;;;;6276547;22;19943;-68
2021/11/09 11:33:35;;;;;;;;;;;12.80;56.20;;;;;;6277001;22;19903;-68
2021/11/09 11:36:00;;;;;;;;;;;12.80;56.00;;;;;;6276952;22;19980;-68
2021/11/09 11:38:27;;;;;;;;;;;12.90;55.80;;;;;;6276938;22;19903;-69
2021/11/09 11:41:00;;;;;;;;;;;13.00;55.70;;;;;;6276861;22;19906;-68
2021/11/09 11:43:49;;;;;;;;;;;13.10;56.10;;;;;;6276820;22;19899;-68
2021/11/09 11:46:17;;;;;;;;;;;13.10;55.20;;;;;;6276952;22;20006;-68
2021/11/09 11:48:51;;;;;;;;;;;13.20;54.80;;;;;;6276482;22;19949;-69
2021/11/09 11:51:17;;;;;;;;;;;13.30;54.50;;;;;;6276570;22;19899;-69
2021/11/09 11:53:44;;;;;;;;;;;13.30;54.30;;;;;;6276801;22;19899;-69
2021/11/09 11:56:12;;;;;;;;;;;13.40;54.20;;;;;;6276614;22;19923;-70
2021/11/09 11:58:38;;;;;;;;;;;13.50;54.00;;;;;;6276648;22;20029;-70
2021/11/09 12:01:04;;;;;;;;;;;13.50;53.60;;;;;;6276804;22;20002;-69
2021/11/09 12:03:32;;;;;;;;;;;13.50;53.40;;;;;;6276444;22;19899;-69
2021/11/09 12:05:58;;;;;;;;;;;13.60;53.30;;;;;;6276715;22;20333;-69
2021/11/09 12:08:33;;;;;;;;;;;13.70;53.30;;;;;;6276691;22;19938;-68
2021/11/09 12:10:58;;;;;;;;;;;13.70;52.90;;;;;;6276631;22;19927;-68
2021/11/09 12:13:24;;;;;;;;;;;13.70;52.70;;;;;;6276337;22;19914;-69
2021/11/09 12:15:57;;;;;;;;;;;13.80;52.10;;;;;;6276507;22;19899;-68
2021/11/09 12:18:32;;;;;;;;;;;13.80;52.20;;;;;;6276531;22;19904;-68
2021/11/09 12:20:59;;;;;;;;;;;13.90;52.00;;;;;;6276495;22;19922;-68
2021/11/09 12:23:26;;;;;;;;;;;13.90;52.00;;;;;;6276384;22;19902;-68
2021/11/09 12:25:52;;;;;;;;;;;14.00;51.80;;;;;;6276284;22;19909;-68
2021/11/09 12:28:20;;;;;;;;;;;14.00;51.60;;;;;;6276187;22;19970;-69
2021/11/09 12:30:46;;;;;;;;;;;14.00;51.30;;;;;;6276784;22;19906;-69
2021/11/09 12:33:38;;;;;;;;;;;14.10;51.30;;;;;;6275859;22;19899;-69
2021/11/09 12:36:05;;;;;;;;;;;14.10;51.30;;;;;;6276451;22;19899;-69
2021/11/09 12:38:32;;;;;;;;;;;14.20;51.50;;;;;;6276251;22;19899;-69
2021/11/09 12:40:58;;;;;;;;;;;14.20;51.30;;;;;;6276146;22;19899;-69
2021/11/09 12:43:33;;;;;;;;;;;14.20;51.10;;;;;;6276379;22;19931;-69
2021/11/09 12:46:06;;;;;;;;;;;14.20;51.00;;;;;;6276220;22;19904;-68
2021/11/09 12:48:34;;;;;;;;;;;14.30;51.10;;;;;;6276197;22;19899;-69
2021/11/09 12:51:01;;;;;;;;;;;14.30;50.80;;;;;;6276328;22;19906;-68
2021/11/09 12:53:27;;;;;;;;;;;14.30;50.70;;;;;;6276278;22;19906;-68
2021/11/09 12:56:08;;;;;;;;;;;14.40;50.70;;;;;;6276250;22;19903;-68
2021/11/09 12:58:37;;;;;;;;;;;14.40;50.50;;;;;;6276264;22;19906;-68
2021/11/09 13:01:25;;;;;;;;;;;14.40;50.40;;;;;;6276192;22;20323;-69
2021/11/09 13:03:59;;;;;;;;;;;14.40;50.40;;;;;;6276151;22;19899;-68
2021/11/09 13:06:36;;;;;;;;;;;14.40;50.30;;;;;;6276261;22;19900;-68
2021/11/09 13:09:24;;;;;;;;;;;14.50;50.40;;;;;;6276434;22;19906;-68
2021/11/09 13:11:53;;;;;;;;;;;14.50;50.10;;;;;;6274516;22;19978;-68
2021/11/09 13:14:20;;;;;;;;;;;14.60;50.20;;;;;;6275887;22;19911;-68
2021/11/09 13:16:49;;;;;;;;;;;14.60;50.00;;;;;;6274492;22;19899;-68
2021/11/09 13:19:16;;;;;;;;;;;14.60;49.60;;;;;;6275922;22;20242;-68
2021/11/09 13:21:41;;;;;;;;;;;14.60;49.20;;;;;;6276165;22;19899;-68
2021/11/09 13:24:09;;;;;;;;;;;14.60;49.30;;;;;;6275985;22;19974;-68
2021/11/09 13:26:34;;;;;;;;;;;14.60;48.70;;;;;;6276008;22;19899;-69
2021/11/09 13:29:07;;;;;;;;;;;14.70;48.80;;;;;;6276166;22;19906;-69
2021/11/09 13:31:34;;;;;;;;;;;14.70;48.40;;;;;;6275991;22;19973;-68
2021/11/09 13:34:02;;;;;;;;;;;14.60;48.20;;;;;;6274060;22;19899;-68
2021/11/09 13:36:28;;;;;;;;;;;14.70;48.30;;;;;;6276065;22;19906;-68
2021/11/09 13:38:55;;;;;;;;;;;14.70;47.80;;;;;;6274182;22;19899;-69
2021/11/09 13:41:23;;;;;;;;;;;14.70;47.60;;;;;;6276002;22;20342;-68
2021/11/09 13:43:52;;;;;;;;;;;14.70;47.50;;;;;;6275917;22;19953;-69
2021/11/09 13:46:32;;;;;;;;;;;14.70;47.40;;;;;;6277992;22;19903;-69
2021/11/09 13:48:59;;;;;;;;;;;14.70;47.40;;;;;;6278027;22;19899;-69
2021/11/09 13:51:49;;;;;;;;;;;14.70;47.10;;;;;;6276248;22;19976;-69
2021/11/09 13:54:21;;;;;;;;;;;14.70;47.20;;;;;;6277989;22;19903;-69
2021/11/09 13:56:49;;;;;;;;;;;14.70;47.00;;;;;;6278325;22;19906;-69
2021/11/09 13:59:17;;;;;;;;;;;14.70;47.60;;;;;;6277883;22;20297;-69
2021/11/09 14:02:37;;;;;;;;;;;14.70;46.80;;;;;;6277619;22;19922;-69
2021/11/09 14:17:35;;;;;;;;;;;14.60;46.00;;;;;;6278029;22;20279;-69
2021/11/09 14:20:07;;;;;;;;;;;14.60;46.10;;;;;;6276019;22;19906;-68
2021/11/09 14:22:33;;;;;;;;;;;14.50;45.90;;;;;;6277498;22;19903;-68
2021/11/09 14:25:00;;;;;;;;;;;14.50;45.60;;;;;;6276966;22;19949;-68
2021/11/09 14:27:27;;;;;;;;;;;14.40;45.60;;;;;;6275905;22;19972;-68
2021/11/09 14:29:55;;;;;;;;;;;14.40;45.60;;;;;;6277427;22;19899;-68
2021/11/09 14:32:22;;;;;;;;;;;14.40;45.60;;;;;;6275469;22;19899;-68
2021/11/09 14:34:58;;;;;;;;;;;14.40;45.40;;;;;;6277514;22;20240;-68
2021/11/09 14:37:30;;;;;;;;;;;14.30;45.40;;;;;;6277126;22;19900;-68
2021/11/09 14:39:58;;;;;;;;;;;14.30;45.60;;;;;;6277461;22;19899;-68
2021/11/09 14:42:39;;;;;;;;;;;14.30;45.60;;;;;;6277531;22;20356;-68
2021/11/09 14:45:23;;;;;;;;;;;14.20;45.40;;;;;;6275828;22;20272;-68
2021/11/09 14:47:53;;;;;;;;;;;14.20;45.40;;;;;;6275795;22;19899;-69
2021/11/09 14:50:32;;;;;;;;;;;14.20;45.50;;;;;;6275516;22;19899;-68
2021/11/09 14:53:07;;;;;;;;;;;14.10;45.60;;;;;;6277313;22;19899;-68
2021/11/09 14:55:41;;;;;;;;;;;14.10;45.60;;;;;;6276983;22;19903;-68
2021/11/09 14:58:42;;;;;;;;;;;14.00;45.60;;;;;;6277354;22;20342;-68
2021/11/09 15:01:33;;;;;;;;;;;14.00;45.70;;;;;;6243895;23;19971;-68
2021/11/09 15:04:00;;;;;;;;;;;14.00;46.00;;;;;;6218194;23;20036;-67
2021/11/09 15:06:50;;;;;;;;;;;13.90;45.90;;;;;;6243822;23;19974;-68
2021/11/09 15:30:28;;;;;;;;;;;13.50;46.10;;;;;;6243991;23;19903;-68
2021/11/09 15:32:54;;;;;;;;;;;13.40;46.20;;;;;;6243487;23;19907;-68
2021/11/09 15:35:36;;;;;;;;;;;13.40;46.20;;;;;;6263261;22;19986;-69
2021/11/09 15:38:02;;;;;;;;;;;13.40;46.30;;;;;;6276513;22;19907;-69
2021/11/09 15:40:28;;;;;;;;;;;13.30;46.40;;;;;;6276904;22;20230;-69
2021/11/09 15:42:53;;;;;;;;;;;13.20;47.00;;;;;;6276869;22;20187;-69
2021/11/09 15:45:19;;;;;;;;;;;13.10;46.40;;;;;;6276523;22;19938;-69
2021/11/09 15:47:45;;;;;;;;;;;13.10;47.00;;;;;;6276664;22;19899;-67
2021/11/09 15:50:11;;;;;;;;;;;13.00;46.40;;;;;;6276682;22;19975;-68
2021/11/09 15:52:37;;;;;;;;;;;12.90;46.50;;;;;;6274909;22;19930;-68
2021/11/09 15:55:04;;;;;;;;;;;12.90;46.60;;;;;;6276672;22;20307;-68
2021/11/09 15:57:30;;;;;;;;;;;12.90;46.60;;;;;;6276533;22;19899;-68
2021/11/09 15:59:56;;;;;;;;;;;12.90;46.70;;;;;;6276496;22;19907;-68
2021/11/09 16:02:22;;;;;;;;;;;12.80;46.70;;;;;;6276436;22;19949;-68
2021/11/09 16:04:49;;;;;;;;;;;12.80;46.70;;;;;;6277044;22;19910;-68
2021/11/09 16:07:16;;;;;;;;;;;12.80;46.90;;;;;;6274859;22;19961;-69
2021/11/09 16:09:45;;;;;;;;;;;12.70;46.80;;;;;;6276754;22;19974;-69
2021/11/09 16:12:12;;;;;;;;;;;12.70;46.90;;;;;;6276543;22;19899;-69
2021/11/09 16:14:39;;;;;;;;;;;12.60;46.90;;;;;;6274826;22;19911;-68
2021/11/09 16:17:06;;;;;;;;;;;12.60;47.10;;;;;;6276289;22;19899;-69
2021/11/09 16:19:32;;;;;;;;;;;12.50;47.10;;;;;;6276268;22;19899;-69
2021/11/09 16:21:58;;;;;;;;;;;12.50;47.20;;;;;;6276601;22;20307;-69
2021/11/09 16:24:23;;;;;;;;;;;12.40;47.20;;;;;;6276151;22;19903;-69
2021/11/09 16:26:49;;;;;;;;;;;12.40;47.30;;;;;;6276392;22;20037;-69
2021/11/09 16:29:21;;;;;;;;;;;12.30;47.40;;;;;;6276287;22;20373;-69
2021/11/09 16:31:46;;;;;;;;;;;12.30;47.40;;;;;;6276167;22;19910;-69
2021/11/09 16:34:13;;;;;;;;;;;12.30;47.50;;;;;;6276752;22;19896;-69
2021/11/09 16:36:39;;;;;;;;;;;12.20;47.50;;;;;;6276018;22;19899;-69
2021/11/09 16:39:51;;;;;;;;;;;12.20;47.60;;;;;;6276466;22;19895;-69
2021/11/09 16:41:51;;;;;;;;;;;12.10;47.60;;;;;;6265060;22;19899;-69
2021/11/09 16:44:18;;;;;;;;;;;12.10;47.60;;;;;;6276257;22;19945;-69
2021/11/09 16:46:55;;;;;;;;;;;12.10;47.70;;;;;;6276428;22;19903;-69
2021/11/09 16:49:47;;;;;;;;;;;12.00;47.70;;;;;;6274734;22;19896;-69
2021/11/09 16:52:17;;;;;;;;;;;12.00;47.80;;;;;;6276404;22;19982;-69
2021/11/09 16:54:50;;;;;;;;;;;12.00;47.90;;;;;;6274849;22;19961;-69
2021/11/09 16:57:24;;;;;;;;;;;12.00;47.90;;;;;;6276505;22;20226;-68
2021/11/09 18:20:05;;;;;;;;;;;10.90;49.90;;;;;;6276987;22;20004;-68
2021/11/09 18:22:34;;;;;;;;;;;10.90;49.90;;;;;;6276986;22;19945;-69
2021/11/09 18:25:02;;;;;;;;;;;10.90;49.90;;;;;;6274751;22;19954;-68
2021/11/09 18:27:28;;;;;;;;;;;10.80;49.90;;;;;;6274845;22;19899;-68
2021/11/09 18:29:55;;;;;;;;;;;10.90;50.00;;;;;;6276568;22;19899;-69
2021/11/09 18:32:21;;;;;;;;;;;10.90;50.00;;;;;;6276731;22;19925;-69
2021/11/09 18:34:47;;;;;;;;;;;10.90;50.00;;;;;;6276738;22;19899;-69
2021/11/09 18:37:15;;;;;;;;;;;10.90;50.10;;;;;;6274687;22;20233;-68